Bookmark and Share
Track history (hours):
 

Porto Di Livorno

Last reported at 2014-Apr-18 13:33 UTC. Time now 2014-Apr-19 14:40 UTC.
Position N 43°34' E 010°18'.

Length 24 m; draft 6.1 m.

Type: Tug. MMSI: 247194299.

NotesDate/timePositionNaut miles runAvg speedWind from/ knotsBaromVisibWave heightAir tempDewpointWater temp
2014-Apr-18 13:33N 43°34' E 010°18'0 0.0
2014-Apr-18 12:33N 43°34' E 010°18'0 0.0
2014-Apr-18 11:33N 43°34' E 010°18'0 0.0
2014-Apr-18 10:33N 43°34' E 010°18'0 0.0
2014-Apr-18 09:33N 43°34' E 010°18'0 0.0
2014-Apr-18 08:33N 43°34' E 010°18'0 0.0
2014-Apr-18 07:33N 43°34' E 010°18'0 0.0
2014-Apr-18 06:33N 43°34' E 010°18'0 0.0
2014-Apr-18 05:33N 43°34' E 010°18'0 0.0
2014-Apr-17 16:33N 43°34' E 010°18'0 0.0
2014-Apr-17 15:33N 43°34' E 010°18'0 0.0
2014-Apr-17 14:34N 43°34' E 010°18'0 0.0
2014-Apr-17 13:33N 43°34' E 010°18'0 0.0
2014-Apr-17 12:33N 43°34' E 010°18'0 0.0
2014-Apr-17 11:33N 43°34' E 010°18'0 0.0
2014-Apr-17 10:33N 43°34' E 010°18'0 0.0
2014-Apr-17 09:33N 43°34' E 010°18'0 0.0
2014-Apr-17 08:33N 43°34' E 010°18'0 0.0
2014-Apr-17 07:33N 43°34' E 010°18'0 0.0
2014-Apr-17 06:34N 43°34' E 010°18'0 0.0
2014-Apr-16 13:30N 43°34' E 010°18'0 0.0
2014-Apr-16 12:33N 43°34' E 010°18'0 0.0
2014-Apr-16 11:33N 43°34' E 010°18'0 0.0
2014-Apr-16 10:33N 43°34' E 010°18'0 0.0
2014-Apr-16 09:34N 43°34' E 010°18'0 0.0
2014-Apr-16 08:33N 43°34' E 010°18'0 0.0
2014-Apr-16 07:33N 43°34' E 010°18'0 0.0
2014-Apr-16 06:33N 43°34' E 010°18'0 0.0
2014-Apr-16 05:33N 43°34' E 010°18'0 0.0
2014-Apr-15 15:33N 43°34' E 010°18'0 0.0
2014-Apr-15 14:33N 43°34' E 010°18'0 0.0
2014-Apr-15 12:34N 43°34' E 010°18'0 0.0
2014-Apr-15 11:34N 43°34' E 010°18'0 0.0
2014-Apr-15 10:34N 43°34' E 010°18'0 0.0
2014-Apr-15 09:34N 43°34' E 010°18'0 0.0
2014-Apr-15 08:34N 43°34' E 010°18'0 0.0
2014-Apr-15 07:34N 43°34' E 010°18'0 0.0
2014-Apr-15 06:34N 43°34' E 010°18'0 0.0
2014-Apr-15 05:34N 43°34' E 010°18'0 0.0
2014-Apr-14 15:34N 43°34' E 010°18'0 0.0
2014-Apr-14 14:33N 43°34' E 010°18'0 0.0
2014-Apr-14 13:34N 43°34' E 010°18'0 0.0
2014-Apr-14 11:34N 43°34' E 010°18'0 0.0
2014-Apr-14 10:34N 43°34' E 010°18'0 0.0
2014-Apr-14 09:33N 43°34' E 010°18'0 0.0
2014-Apr-14 08:33N 43°34' E 010°18'0 0.0
2014-Apr-14 07:33N 43°34' E 010°18'0 0.0
2014-Apr-14 06:33N 43°34' E 010°18'0 0.0
2014-Apr-14 05:33N 43°34' E 010°18'  
2014-Apr-11 15:33N 43°34' E 010°18'0 0.0
2014-Apr-11 14:33N 43°34' E 010°18'0 0.0
2014-Apr-11 13:33N 43°34' E 010°18'3 3.3
2014-Apr-11 12:33N 43°30' E 010°17'3 3.3
2014-Apr-11 11:33N 43°34' E 010°18'0 0.0
2014-Apr-11 10:33N 43°34' E 010°18'0 0.0
2014-Apr-11 09:33N 43°34' E 010°18'0 0.0
2014-Apr-11 08:33N 43°34' E 010°18'0 0.0
2014-Apr-11 07:33N 43°34' E 010°18'0 0.0
2014-Apr-11 06:33N 43°34' E 010°18'0 0.0
2014-Apr-11 05:33N 43°34' E 010°18'0 0.0
2014-Apr-10 16:27N 43°34' E 010°18'0 0.0
2014-Apr-10 15:33N 43°34' E 010°18'0 0.0
2014-Apr-10 14:33N 43°34' E 010°18'0 0.0
2014-Apr-10 13:33N 43°34' E 010°18'0 0.0
2014-Apr-10 12:33N 43°34' E 010°18'0 0.0
2014-Apr-10 11:33N 43°34' E 010°18'4 3.8
2014-Apr-10 10:34N 43°30' E 010°17'6 5.7
2014-Apr-10 09:34N 43°29' E 010°09'1 0.9
2014-Apr-10 08:33N 43°29' E 010°09'8 7.8
2014-Apr-10 07:34N 43°34' E 010°18'0 0.1
2014-Apr-10 06:33N 43°34' E 010°18'0 0.0
2014-Apr-10 05:33N 43°34' E 010°18'0 0.0
2014-Apr-10 04:33N 43°34' E 010°18'0 0.0
2014-Apr-10 03:33N 43°34' E 010°18'0 0.0
2014-Apr-10 02:33N 43°34' E 010°18'0 0.0
2014-Apr-10 01:33N 43°34' E 010°18'0 0.0
2014-Apr-10 00:33N 43°34' E 010°18'0 0.0
2014-Apr-09 23:33N 43°34' E 010°18'0 0.0
2014-Apr-09 22:33N 43°34' E 010°18'0 0.0
2014-Apr-09 21:33N 43°34' E 010°18'0 0.0
2014-Apr-09 20:33N 43°34' E 010°18'0 0.0
2014-Apr-09 19:33N 43°34' E 010°18'0 0.0
2014-Apr-09 18:33N 43°34' E 010°18'0 0.0
2014-Apr-09 17:33N 43°34' E 010°18'0 0.0
2014-Apr-09 16:33N 43°34' E 010°18'0 0.0
2014-Apr-09 15:33N 43°34' E 010°18'0 0.0
2014-Apr-09 14:33N 43°34' E 010°18'0 0.0
2014-Apr-09 13:33N 43°34' E 010°18'0 0.0
2014-Apr-09 12:33N 43°34' E 010°18'0 0.0
2014-Apr-09 11:33N 43°34' E 010°18'0 0.0
2014-Apr-09 10:33N 43°34' E 010°18'0 0.0
2014-Apr-09 09:33N 43°34' E 010°18'0 0.0
2014-Apr-09 08:33N 43°34' E 010°18'0 0.0
2014-Apr-09 07:33N 43°34' E 010°18'0 0.0
2014-Apr-09 06:34N 43°34' E 010°18'0 0.0
2014-Apr-09 05:34N 43°34' E 010°18'0 0.0
2014-Apr-09 04:33N 43°34' E 010°18'0 0.0
2014-Apr-09 03:33N 43°34' E 010°18'0 0.0
2014-Apr-09 02:34N 43°34' E 010°18'0 0.0
2014-Apr-09 01:34N 43°34' E 010°18'0 0.0
2014-Apr-09 00:33N 43°34' E 010°18'0 0.0
2014-Apr-08 23:33N 43°34' E 010°18'0 0.0
2014-Apr-08 22:33N 43°34' E 010°18'0 0.0
2014-Apr-08 21:34N 43°34' E 010°18'0 0.0
2014-Apr-08 20:33N 43°34' E 010°18'0 0.0
2014-Apr-08 19:34N 43°34' E 010°18'0 0.0
2014-Apr-08 18:34N 43°34' E 010°18'0 0.0
2014-Apr-08 17:33N 43°34' E 010°18'0 0.0
2014-Apr-08 16:33N 43°34' E 010°18'0 0.0
2014-Apr-08 15:33N 43°34' E 010°18'0 0.0
2014-Apr-08 14:33N 43°34' E 010°18'0 0.0
2014-Apr-08 13:33N 43°34' E 010°18'  

Dump ship's entire track history

sailing weather and tide predictions

Porto Di Livorno — IFPU2 — position and weather